Main page
METAR-TAF:

METAR-TAF

Airports :

Columbus Metropolitan Airport

Columbus, Georgia, United States

latitude: 32-30-58N, longitude: 084-56-32W, elevation: 397 ft

Current weather observation

The report was made 22 minutes ago, at 22:51 UTC
Wind 3 mph from the East
Temperature 95°F
Humidity 30%
Pressure 30.05 in. Hg
Visibility: 10 miles
Clear sky

METAR: KCSG 122251Z 08003KT 10SM CLR 35/15 A3005 RMK AO2 SLP169 T03500150

Time: 19:13 (23:13 UTC)

Forecast

The report was made 5 hours and 38 minutes ago, at 17:35 UTC
Forecast valid from 12 at 18 UTC to 13 at 18 UTC
Wind 6 mph from the North/Northwest
Visibility: 6 miles
Scattered clouds at a height of 6000 ft
From 13 at 0000 UTC
Wind 3 mph from variable directions
Visibility: 6 miles
Scattered clouds at a height of 25000 ft
From 13 at 1500 UTC
Wind 5 mph from the North/Northwest
Visibility: 6 miles
Scattered clouds at a height of 6000 ft

TAF: KCSG 121735Z 1218/1318 33005KT P6SM SCT060 FM130000 VRB03KT P6SM SCT250 FM131500 33004KT P6SM SCT060

Weather observations and forecasts of more than 4000 airports (METAR and TAF reports).

The available stations are represented by yellow and red dots on the map.

Hover mouse over dot to see the name of the station.

Then click to see weather observations and forecasts.

To change the map : click on the green buttons with a black cross to zoom in, on the green button with a dash to zoom out, or on the green arrows for adjacent maps.


METAR-TAF: